createdAt,value
2018-07-11T00:02:21.983Z,13.70
2018-07-11T00:04:51.279Z,13.80
2018-07-11T00:07:20.403Z,13.80
2018-07-11T00:09:49.615Z,13.90
2018-07-11T00:12:18.827Z,13.90
2018-07-11T00:14:48.048Z,13.90
2018-07-11T00:17:17.344Z,13.90
2018-07-11T00:19:46.665Z,13.90
2018-07-11T00:22:16.753Z,13.90
2018-07-11T00:24:46.200Z,13.90
2018-07-11T00:27:15.409Z,13.80
2018-07-11T00:29:44.876Z,13.80
2018-07-11T00:32:14.134Z,13.90
2018-07-11T00:34:43.358Z,13.80
2018-07-11T00:37:12.626Z,13.70
2018-07-11T00:39:41.767Z,13.80
2018-07-11T00:42:11.120Z,13.90
2018-07-11T00:44:40.735Z,13.90
2018-07-11T00:47:10.455Z,13.90
2018-07-11T00:49:39.741Z,13.90
2018-07-11T00:52:09.084Z,13.80
2018-07-11T00:54:38.232Z,13.80
2018-07-11T00:57:07.462Z,13.80
2018-07-11T00:59:38.983Z,13.80
2018-07-11T01:02:08.203Z,13.90
2018-07-11T01:04:37.755Z,13.90
2018-07-11T01:07:07.620Z,13.90
2018-07-11T01:09:44.435Z,13.80
2018-07-11T01:12:13.330Z,13.80
2018-07-11T01:14:42.672Z,13.70
2018-07-11T01:17:17.196Z,13.70
2018-07-11T01:19:47.167Z,13.80
2018-07-11T01:22:16.561Z,13.80
2018-07-11T01:24:45.894Z,13.90
2018-07-11T01:27:14.963Z,13.80
2018-07-11T01:29:44.187Z,13.80
2018-07-11T01:32:13.432Z,13.80
2018-07-11T01:34:42.744Z,13.80
2018-07-11T01:37:11.732Z,13.80
2018-07-11T01:39:41.046Z,13.80
2018-07-11T01:42:10.183Z,13.80
2018-07-11T01:44:39.571Z,13.80
2018-07-11T01:47:08.750Z,13.70
2018-07-11T01:49:38.754Z,13.80
2018-07-11T01:52:19.056Z,13.90
2018-07-11T01:54:48.875Z,13.80
2018-07-11T01:57:18.160Z,13.90
2018-07-11T01:59:47.644Z,13.80
2018-07-11T02:02:17.014Z,13.80
2018-07-11T02:04:46.358Z,13.80
2018-07-11T02:07:15.472Z,13.90
2018-07-11T02:09:44.701Z,13.90
2018-07-11T02:12:14.233Z,13.90
2018-07-11T02:14:47.753Z,14.00
2018-07-11T02:17:16.851Z,14.00
2018-07-11T02:19:45.991Z,14.00
2018-07-11T02:22:15.480Z,14.00
2018-07-11T02:27:13.447Z,14.00
2018-07-11T02:29:42.499Z,13.90
2018-07-11T02:32:11.885Z,13.90
2018-07-11T02:34:41.090Z,14.00
2018-07-11T02:37:10.571Z,14.00
2018-07-11T02:39:40.162Z,13.90
2018-07-11T02:44:38.151Z,13.80
2018-07-11T02:47:13.639Z,13.90
2018-07-11T02:49:43.786Z,13.90
2018-07-11T02:52:12.829Z,13.80
2018-07-11T02:54:42.148Z,13.90
2018-07-11T02:57:11.337Z,13.90
2018-07-11T02:59:40.735Z,13.90
2018-07-11T03:02:09.894Z,13.80
2018-07-11T03:04:39.344Z,13.80
2018-07-11T03:07:09.441Z,13.80
2018-07-11T03:09:39.043Z,13.70
2018-07-11T03:12:08.675Z,13.70
2018-07-11T03:14:41.991Z,13.90
2018-07-11T03:17:12.755Z,13.90
2018-07-11T03:19:41.935Z,13.90
2018-07-11T03:22:11.126Z,13.90
2018-07-11T03:24:40.273Z,14.00
2018-07-11T03:27:09.751Z,13.90
2018-07-11T03:29:39.338Z,13.90
2018-07-11T03:32:08.421Z,13.90
2018-07-11T03:34:37.662Z,13.90
2018-07-11T03:39:35.674Z,13.90
2018-07-11T03:42:05.165Z,13.90
2018-07-11T03:44:34.176Z,13.90
2018-07-11T03:47:03.456Z,14.00
2018-07-11T03:49:32.907Z,13.90
2018-07-11T03:52:02.512Z,14.00
2018-07-11T03:54:31.859Z,14.00
2018-07-11T03:57:01.003Z,13.90
2018-07-11T03:59:30.100Z,13.90
2018-07-11T04:01:59.347Z,13.80
2018-07-11T04:04:28.787Z,13.90
2018-07-11T04:06:58.717Z,13.90
2018-07-11T04:09:28.101Z,14.00
2018-07-11T04:11:57.196Z,14.00
2018-07-11T04:14:26.403Z,14.00
2018-07-11T04:16:55.559Z,14.00
2018-07-11T04:19:25.056Z,14.10
2018-07-11T04:21:54.159Z,14.20
2018-07-11T04:24:23.603Z,14.20
2018-07-11T04:26:52.938Z,14.20
2018-07-11T04:29:22.069Z,14.20
2018-07-11T04:31:51.703Z,14.20
2018-07-11T04:34:21.756Z,14.30
2018-07-11T04:36:51.091Z,14.20
2018-07-11T04:39:20.336Z,14.30
2018-07-11T04:41:49.436Z,14.30
2018-07-11T04:44:18.630Z,14.40
2018-07-11T04:46:47.657Z,14.40
2018-07-11T04:49:16.869Z,14.50
2018-07-11T04:51:47.043Z,14.40
2018-07-11T04:54:17.329Z,14.50
2018-07-11T04:56:46.559Z,14.60
2018-07-11T04:59:15.705Z,14.70
2018-07-11T05:01:45.231Z,14.60
2018-07-11T05:04:14.261Z,14.60
2018-07-11T05:09:12.411Z,14.70
2018-07-11T05:11:41.588Z,14.70
2018-07-11T05:14:10.656Z,14.80
2018-07-11T05:16:39.976Z,14.80
2018-07-11T05:19:09.359Z,14.80
2018-07-11T05:21:38.619Z,14.80
2018-07-11T05:24:07.754Z,14.80
2018-07-11T05:26:36.967Z,14.90
2018-07-11T05:29:06.427Z,14.90
2018-07-11T05:31:35.607Z,14.90
2018-07-11T05:34:04.813Z,15.00
2018-07-11T05:36:34.120Z,15.00
2018-07-11T05:39:03.743Z,15.20
2018-07-11T05:41:34.651Z,15.20
2018-07-11T05:44:03.738Z,15.20
2018-07-11T05:46:32.912Z,15.30
2018-07-11T05:49:02.371Z,15.40
2018-07-11T05:51:31.536Z,15.50
2018-07-11T05:54:01.043Z,15.60
2018-07-11T05:56:30.809Z,15.70
2018-07-11T05:59:00.085Z,15.60
2018-07-11T06:01:29.328Z,15.70
2018-07-11T06:03:58.664Z,15.70
2018-07-11T06:06:27.705Z,15.90
2018-07-11T06:08:57.117Z,16.00
2018-07-11T06:11:26.379Z,16.10
2018-07-11T06:13:55.847Z,16.00
2018-07-11T06:16:25.459Z,15.90
2018-07-11T06:18:54.649Z,16.20
2018-07-11T06:21:26.058Z,16.60
2018-07-11T06:23:55.503Z,16.80
2018-07-11T06:26:24.928Z,16.90
2018-07-11T06:28:54.107Z,17.00
2018-07-11T06:31:23.673Z,17.10
2018-07-11T06:33:52.762Z,17.10
2018-07-11T06:36:22.036Z,17.20
2018-07-11T06:38:51.180Z,17.10
2018-07-11T06:41:20.649Z,17.20
2018-07-11T06:43:49.805Z,17.20
2018-07-11T06:46:19.388Z,16.90
2018-07-11T06:48:48.815Z,16.80
2018-07-11T06:51:18.284Z,16.80
2018-07-11T06:53:47.677Z,16.80
2018-07-11T06:56:17.079Z,16.90
2018-07-11T06:58:46.919Z,17.00
2018-07-11T07:01:17.529Z,17.20
2018-07-11T07:03:46.678Z,17.60
2018-07-11T07:06:15.717Z,18.20
2018-07-11T07:08:44.976Z,18.30
2018-07-11T07:11:14.098Z,18.10
2018-07-11T07:13:43.579Z,18.30
2018-07-11T07:16:13.262Z,18.50
2018-07-11T07:18:43.027Z,18.80
2018-07-11T07:21:12.257Z,19.10
2018-07-11T07:23:41.435Z,19.20
2018-07-11T07:26:10.677Z,19.60
2018-07-11T07:28:39.788Z,19.50
2018-07-11T07:31:09.241Z,18.90
2018-07-11T07:33:38.581Z,18.40
2018-07-11T07:36:07.779Z,18.50
2018-07-11T07:38:40.463Z,18.60
2018-07-11T07:41:10.397Z,18.90
2018-07-11T07:43:40.780Z,18.90
2018-07-11T07:46:09.920Z,19.00
2018-07-11T07:48:39.139Z,19.20
2018-07-11T07:51:08.247Z,19.30
2018-07-11T07:53:38.424Z,19.40
2018-07-11T07:56:07.600Z,19.70
2018-07-11T07:58:38.093Z,20.10
2018-07-11T08:01:08.479Z,20.60
2018-07-11T08:03:38.875Z,21.10
2018-07-11T08:06:08.240Z,20.90
2018-07-11T08:08:37.612Z,21.00
2018-07-11T08:11:06.980Z,20.20
2018-07-11T08:13:36.366Z,20.10
2018-07-11T08:18:34.913Z,21.30
2018-07-11T08:21:04.115Z,21.80
2018-07-11T08:23:44.037Z,22.00
2018-07-11T08:26:24.413Z,21.30
2018-07-11T08:30:33.320Z,21.30
2018-07-11T08:33:26.388Z,21.10
2018-07-11T08:37:18.821Z,21.10
2018-07-11T08:40:29.315Z,20.90
2018-07-11T08:46:13.720Z,20.70
2018-07-11T08:48:54.254Z,20.90
2018-07-11T08:52:36.513Z,21.80
2018-07-11T08:55:21.916Z,22.20
2018-07-11T09:00:03.576Z,21.90
2018-07-11T09:03:45.143Z,21.60
2018-07-11T09:08:26.769Z,21.40
2018-07-11T09:11:04.503Z,21.20
2018-07-11T09:13:44.843Z,21.40
2018-07-11T09:17:25.671Z,21.70
2018-07-11T09:20:25.884Z,21.80
2018-07-11T09:24:12.333Z,22.00
2018-07-11T09:26:41.504Z,21.60
2018-07-11T09:29:11.035Z,21.60
2018-07-11T09:31:40.667Z,21.20
2018-07-11T09:34:09.865Z,21.30
2018-07-11T09:36:38.985Z,21.00
2018-07-11T09:39:08.640Z,21.10
2018-07-11T09:41:37.984Z,21.20
2018-07-11T09:44:07.572Z,20.70
2018-07-11T09:46:36.914Z,20.70
2018-07-11T09:49:06.448Z,20.70
2018-07-11T09:51:35.903Z,20.60
2018-07-11T09:54:05.125Z,20.60
2018-07-11T09:56:34.641Z,20.60
2018-07-11T09:59:03.868Z,20.50
2018-07-11T10:04:01.943Z,20.60
2018-07-11T10:06:31.139Z,20.70
2018-07-11T10:09:00.964Z,20.80
2018-07-11T10:11:30.181Z,20.80
2018-07-11T10:13:59.333Z,20.80
2018-07-11T10:16:28.561Z,20.80
2018-07-11T10:21:29.931Z,20.80
2018-07-11T10:23:59.311Z,20.50
2018-07-11T10:28:57.500Z,20.20
2018-07-11T10:31:27.755Z,20.10
2018-07-11T10:33:56.952Z,20.10
2018-07-11T10:36:26.279Z,20.00
2018-07-11T10:38:55.940Z,20.00
2018-07-11T10:41:25.237Z,20.00
2018-07-11T10:46:23.232Z,20.10
2018-07-11T10:48:52.800Z,20.30
2018-07-11T10:51:21.847Z,20.30
2018-07-11T10:53:51.135Z,20.20
2018-07-11T10:56:20.604Z,20.20
2018-07-11T10:58:49.764Z,20.20
2018-07-11T11:01:19.232Z,20.10
2018-07-11T11:03:48.362Z,19.90
2018-07-11T11:06:17.996Z,19.80
2018-07-11T11:08:47.414Z,19.70
2018-07-11T11:11:16.655Z,19.60
2018-07-11T11:13:45.969Z,19.60
2018-07-11T11:16:15.020Z,19.50
2018-07-11T11:18:44.301Z,19.40
2018-07-11T11:21:13.787Z,19.30
2018-07-11T11:23:43.076Z,19.10
2018-07-11T11:26:12.240Z,18.90
2018-07-11T11:28:41.240Z,18.60
2018-07-11T11:31:10.883Z,18.50
2018-07-11T11:33:40.204Z,18.30
2018-07-11T11:36:09.866Z,18.20
2018-07-11T11:38:39.035Z,18.30
2018-07-11T11:41:08.424Z,18.20
2018-07-11T11:43:37.969Z,18.10
2018-07-11T11:46:07.133Z,17.90
2018-07-11T11:48:36.280Z,18.00
2018-07-11T11:51:05.553Z,18.10
2018-07-11T11:53:35.063Z,18.00
2018-07-11T11:56:04.828Z,18.00
2018-07-11T11:58:33.989Z,18.00
2018-07-11T12:01:03.128Z,18.00
2018-07-11T12:03:32.508Z,18.00
2018-07-11T12:08:30.945Z,18.00
2018-07-11T12:11:00.089Z,18.00
2018-07-11T12:13:29.012Z,18.00
2018-07-11T12:15:58.365Z,17.90
2018-07-11T12:18:27.999Z,17.90
2018-07-11T12:20:59.843Z,17.80
2018-07-11T12:23:29.684Z,17.80
2018-07-11T12:26:04.704Z,17.90
2018-07-11T12:28:33.899Z,17.90
2018-07-11T12:31:03.630Z,17.80
2018-07-11T12:33:33.116Z,17.70
2018-07-11T12:36:02.547Z,17.70
2018-07-11T12:38:31.657Z,17.60
2018-07-11T12:41:01.036Z,17.70
2018-07-11T12:43:30.214Z,17.90
2018-07-11T12:45:59.468Z,18.00
2018-07-11T12:48:34.307Z,18.00
2018-07-11T12:51:03.784Z,18.10
2018-07-11T12:53:33.132Z,18.20
2018-07-11T12:56:02.652Z,18.30
2018-07-11T12:58:32.011Z,18.60
2018-07-11T13:01:01.250Z,18.60
2018-07-11T13:03:30.654Z,18.60
2018-07-11T13:06:00.487Z,18.70
2018-07-11T13:08:29.781Z,18.50
2018-07-11T13:11:00.358Z,18.60
2018-07-11T13:13:29.605Z,18.60
2018-07-11T13:15:59.085Z,18.60
2018-07-11T13:18:28.324Z,18.70
2018-07-11T13:20:58.591Z,18.80
2018-07-11T13:23:28.148Z,18.70
2018-07-11T13:25:57.097Z,18.70
2018-07-11T13:28:26.344Z,18.80
2018-07-11T13:30:55.660Z,18.80
2018-07-11T13:33:25.088Z,18.60
2018-07-11T13:35:54.344Z,18.40
2018-07-11T13:38:23.928Z,18.50
2018-07-11T13:40:53.396Z,18.40
2018-07-11T13:43:22.558Z,18.40
2018-07-11T13:45:51.843Z,18.30
2018-07-11T13:48:21.137Z,18.40
2018-07-11T13:50:50.394Z,18.60
2018-07-11T13:53:19.596Z,18.60
2018-07-11T13:55:48.796Z,18.70
2018-07-11T14:00:47.214Z,18.80
2018-07-11T14:03:16.340Z,18.80
2018-07-11T14:05:45.514Z,18.70
2018-07-11T14:08:14.519Z,18.60
2018-07-11T14:10:43.816Z,18.50
2018-07-11T14:13:13.307Z,18.30
2018-07-11T14:15:42.811Z,18.20
2018-07-11T14:18:12.194Z,18.20
2018-07-11T14:20:41.396Z,18.20
2018-07-11T14:23:10.580Z,18.20
2018-07-11T14:25:41.332Z,18.10
2018-07-11T14:28:10.717Z,18.10
2018-07-11T14:30:40.301Z,18.00
2018-07-11T14:33:10.129Z,18.00
2018-07-11T14:35:39.371Z,17.90
2018-07-11T14:38:08.724Z,17.90
2018-07-11T14:40:38.516Z,17.90
2018-07-11T14:43:08.629Z,17.80
2018-07-11T14:45:38.306Z,17.80
2018-07-11T14:48:13.927Z,17.80
2018-07-11T14:50:43.228Z,17.80
2018-07-11T14:53:12.524Z,17.70
2018-07-11T14:55:41.948Z,17.70
2018-07-11T14:58:11.501Z,17.70
2018-07-11T15:00:40.915Z,17.90
2018-07-11T15:03:10.170Z,17.70
2018-07-11T15:05:39.690Z,17.60
2018-07-11T15:08:08.865Z,17.60
2018-07-11T15:10:40.741Z,17.60
2018-07-11T15:13:10.325Z,17.50
2018-07-11T15:15:39.909Z,17.50
2018-07-11T15:18:10.774Z,17.60
2018-07-11T15:20:40.674Z,17.60
2018-07-11T15:23:10.235Z,17.60
2018-07-11T15:25:39.494Z,17.70
2018-07-11T15:28:09.100Z,17.60
2018-07-11T15:30:38.616Z,17.60
2018-07-11T15:33:08.852Z,17.60
2018-07-11T15:35:38.379Z,17.60
2018-07-11T15:38:07.733Z,17.50
2018-07-11T15:40:37.172Z,17.50
2018-07-11T15:43:06.584Z,17.50
2018-07-11T15:45:36.187Z,17.30
2018-07-11T15:48:05.577Z,17.30
2018-07-11T15:50:35.039Z,17.30
2018-07-11T15:53:04.367Z,17.30
2018-07-11T15:55:34.660Z,17.30
2018-07-11T15:58:07.304Z,17.40
2018-07-11T16:00:40.266Z,17.40
2018-07-11T16:03:10.588Z,17.40
2018-07-11T16:05:40.787Z,17.20
2018-07-11T16:08:10.046Z,17.20
2018-07-11T16:10:42.380Z,17.20
2018-07-11T16:13:12.577Z,17.30
2018-07-11T16:15:42.520Z,17.20
2018-07-11T16:18:12.149Z,17.20
2018-07-11T16:20:41.454Z,17.20
2018-07-11T16:23:11.535Z,17.20
2018-07-11T16:25:42.522Z,17.10
2018-07-11T16:28:12.075Z,17.10
2018-07-11T16:30:41.680Z,17.10
2018-07-11T16:33:10.867Z,17.00
2018-07-11T16:35:40.298Z,17.00
2018-07-11T16:38:09.926Z,17.00
2018-07-11T16:40:39.383Z,16.90
2018-07-11T16:43:08.792Z,16.90
2018-07-11T16:45:38.304Z,16.90
2018-07-11T16:48:07.584Z,16.90
2018-07-11T16:50:38.992Z,16.80
2018-07-11T16:53:08.921Z,16.90
2018-07-11T16:55:38.669Z,16.80
2018-07-11T16:58:08.050Z,16.70
2018-07-11T17:00:39.060Z,16.60
2018-07-11T17:03:12.621Z,16.60
2018-07-11T17:05:54.527Z,16.70
2018-07-11T17:08:31.194Z,16.70
2018-07-11T17:13:35.111Z,16.60
2018-07-11T17:16:04.673Z,16.60
2018-07-11T17:18:40.915Z,16.60
2018-07-11T17:21:10.880Z,16.60
2018-07-11T17:23:47.780Z,16.60
2018-07-11T17:26:17.857Z,16.50
2018-07-11T17:28:47.767Z,16.50
2018-07-11T17:31:17.362Z,16.70
2018-07-11T17:33:46.772Z,16.70
2018-07-11T17:36:15.931Z,16.70
2018-07-11T17:38:48.543Z,16.60
2018-07-11T17:41:18.204Z,16.60
2018-07-11T17:43:53.991Z,16.60
2018-07-11T17:46:23.677Z,16.60
2018-07-11T17:49:06.737Z,16.60
2018-07-11T17:51:47.863Z,16.50
2018-07-11T17:54:17.316Z,16.40
2018-07-11T17:56:53.168Z,16.40
2018-07-11T17:59:43.366Z,16.50
2018-07-11T18:02:20.082Z,16.50
2018-07-11T18:05:01.891Z,16.50
2018-07-11T18:07:42.185Z,16.50
2018-07-11T18:10:15.282Z,16.50
2018-07-11T18:12:52.779Z,16.50
2018-07-11T18:16:42.990Z,16.60
2018-07-11T18:21:32.336Z,16.40
2018-07-11T18:26:15.038Z,16.40
2018-07-11T18:28:59.723Z,16.40
2018-07-11T18:31:44.988Z,16.40
2018-07-11T18:34:25.229Z,16.40
2018-07-11T18:38:03.495Z,16.40
2018-07-11T18:40:36.832Z,16.40
2018-07-11T18:45:20.602Z,16.30
2018-07-11T18:49:01.707Z,16.40
2018-07-11T18:51:40.559Z,16.40
2018-07-11T18:54:14.251Z,16.40
2018-07-11T18:57:10.019Z,16.40
2018-07-11T18:59:50.681Z,16.30
2018-07-11T19:02:37.040Z,16.30
2018-07-11T19:05:22.555Z,16.30
2018-07-11T19:10:02.595Z,16.30
2018-07-11T19:12:40.666Z,16.30
2018-07-11T19:15:15.625Z,16.30
2018-07-11T19:18:04.990Z,16.30
2018-07-11T19:21:18.084Z,16.20
2018-07-11T19:24:15.301Z,16.20
2018-07-11T19:27:28.376Z,16.30
2018-07-11T19:30:07.245Z,16.20
2018-07-11T19:32:50.315Z,16.10
2018-07-11T19:35:37.002Z,16.20
2018-07-11T19:38:52.825Z,16.20
2018-07-11T19:41:26.714Z,16.20
2018-07-11T19:46:08.525Z,16.20
2018-07-11T19:50:52.150Z,16.20
2018-07-11T19:53:30.598Z,16.20
2018-07-11T19:56:06.932Z,16.10
2018-07-11T19:58:36.181Z,16.00
2018-07-11T20:01:05.732Z,16.00
2018-07-11T20:03:35.282Z,16.10
2018-07-11T20:06:04.592Z,16.00
2018-07-11T20:08:34.222Z,15.90
2018-07-11T20:11:03.620Z,15.80
2018-07-11T20:13:34.552Z,15.80
2018-07-11T20:16:05.048Z,15.70
2018-07-11T20:18:34.775Z,15.70
2018-07-11T20:21:04.451Z,15.70
2018-07-11T20:23:33.660Z,15.80
2018-07-11T20:26:03.222Z,15.70
2018-07-11T20:28:32.853Z,15.70
2018-07-11T20:31:02.024Z,15.70
2018-07-11T20:33:32.217Z,15.70
2018-07-11T20:36:01.679Z,15.60
2018-07-11T20:38:30.593Z,15.50
2018-07-11T20:41:00.055Z,15.50
2018-07-11T20:43:29.650Z,15.50
2018-07-11T20:45:59.410Z,15.40
2018-07-11T20:48:28.920Z,15.40
2018-07-11T20:53:27.717Z,15.10
2018-07-11T20:55:57.598Z,15.00
2018-07-11T21:00:41.571Z,15.00
2018-07-11T21:05:27.284Z,15.10
2018-07-11T21:09:35.283Z,15.10
2018-07-11T21:14:21.203Z,15.10
2018-07-11T21:19:05.055Z,15.10
2018-07-11T21:21:35.067Z,15.10
2018-07-11T21:26:34.142Z,15.00
2018-07-11T21:29:03.392Z,15.00
2018-07-11T21:31:32.742Z,15.00
2018-07-11T21:34:02.216Z,14.90
2018-07-11T21:36:31.573Z,14.90
2018-07-11T21:39:01.019Z,14.80
2018-07-11T21:41:30.291Z,14.90
2018-07-11T21:43:59.614Z,14.90
2018-07-11T21:46:28.949Z,14.80
2018-07-11T21:48:58.228Z,14.80
2018-07-11T21:51:27.855Z,14.80
2018-07-11T21:53:57.388Z,14.80
2018-07-11T21:56:26.953Z,14.80
2018-07-11T21:58:56.105Z,14.70
2018-07-11T22:01:26.399Z,14.70
2018-07-11T22:03:55.560Z,14.70
2018-07-11T22:06:24.787Z,14.60
2018-07-11T22:08:54.064Z,14.40
2018-07-11T22:11:23.308Z,14.40
2018-07-11T22:13:53.204Z,14.30
2018-07-11T22:16:22.233Z,14.30
2018-07-11T22:18:51.873Z,14.30
2018-07-11T22:21:19.853Z,14.40
2018-07-11T22:23:47.628Z,14.30
2018-07-11T22:26:15.157Z,14.30
2018-07-11T22:28:42.783Z,14.30
2018-07-11T22:31:10.375Z,14.30
2018-07-11T22:33:38.139Z,14.30
2018-07-11T22:36:06.124Z,14.20
2018-07-11T22:38:33.871Z,14.10
2018-07-11T22:41:01.699Z,14.20
2018-07-11T22:43:29.553Z,14.10
2018-07-11T22:45:57.372Z,14.30
2018-07-11T22:48:25.135Z,14.20
2018-07-11T22:50:53.052Z,14.10
2018-07-11T22:55:49.053Z,14.10
2018-07-11T22:58:17.307Z,14.20
2018-07-11T23:00:44.986Z,14.20
2018-07-11T23:03:12.846Z,14.20
2018-07-11T23:05:40.911Z,14.20
2018-07-11T23:08:09.027Z,14.20
2018-07-11T23:10:36.639Z,14.20
2018-07-11T23:13:04.231Z,14.20
2018-07-11T23:15:31.983Z,14.10
2018-07-11T23:17:59.865Z,14.10
2018-07-11T23:20:27.783Z,14.10
2018-07-11T23:22:55.448Z,14.00
2018-07-11T23:25:24.247Z,14.00
2018-07-11T23:27:52.136Z,13.90
2018-07-11T23:30:19.784Z,13.80
2018-07-11T23:32:47.493Z,13.80
2018-07-11T23:35:15.353Z,13.70
2018-07-11T23:37:43.144Z,13.60
2018-07-11T23:40:10.724Z,13.60
2018-07-11T23:42:38.724Z,13.60
2018-07-11T23:45:06.913Z,13.60
2018-07-11T23:47:34.635Z,13.50
2018-07-11T23:50:02.740Z,13.50
2018-07-11T23:52:30.250Z,13.40
2018-07-11T23:54:58.029Z,13.40
2018-07-11T23:57:25.926Z,13.30
2018-07-11T23:59:53.543Z,13.20
